Time;durP1;ratioP1;P1;durP2;ratioP2;P2;SDS_P1;SDS_P2;PMS_P1;PMS_P2;Temp;Humidity;BMP_temperature;BMP_pressure;BME280_temperature;BME280_humidity;BME280_pressure;Samples;Min_cycle;Max_cycle;Signal;HPM_P1;HPM_P2
2022/08/24 00:01:23;;;;;;;7.45;3.00;;;22.50;80.50;;;;;;5013256;28;20025;-55
2022/08/24 00:03:49;;;;;;;7.57;3.13;;;22.50;80.80;;;;;;5012758;28;20026;-56
2022/08/24 00:06:18;;;;;;;5.20;3.28;;;22.50;80.60;;;;;;5011827;28;20022;-56
2022/08/24 00:08:46;;;;;;;2.75;2.55;;;22.50;80.90;;;;;;5013079;28;20116;-51
2022/08/24 00:11:11;;;;;;;11.73;3.10;;;22.40;80.90;;;;;;5012935;28;20025;-55
2022/08/24 00:13:37;;;;;;;6.15;2.90;;;22.30;81.10;;;;;;5012486;28;20116;-56
2022/08/24 00:16:04;;;;;;;10.20;3.15;;;22.30;81.30;;;;;;5013119;28;20522;-54
2022/08/24 00:18:30;;;;;;;4.07;2.90;;;22.30;81.00;;;;;;5012663;28;20029;-55
2022/08/24 00:20:55;;;;;;;6.30;2.67;;;22.20;81.30;;;;;;5012775;28;20026;-55
2022/08/24 00:23:21;;;;;;;3.78;2.70;;;22.20;81.20;;;;;;5012406;28;20033;-55
2022/08/24 00:25:46;;;;;;;6.43;2.80;;;22.20;81.10;;;;;;5012705;28;20026;-55
2022/08/24 00:28:12;;;;;;;3.42;3.13;;;22.20;81.10;;;;;;5012691;28;20026;-56
2022/08/24 00:30:38;;;;;;;6.05;3.05;;;22.20;81.30;;;;;;5012679;28;20398;-54
2022/08/24 00:33:03;;;;;;;5.20;2.67;;;22.10;81.10;;;;;;5012104;28;20025;-51
2022/08/24 00:35:30;;;;;;;7.60;3.30;;;22.00;81.30;;;;;;5011174;28;20030;-55
2022/08/24 00:37:55;;;;;;;6.13;3.15;;;22.00;81.50;;;;;;5012582;28;20030;-57
2022/08/24 00:40:35;;;;;;;16.23;3.30;;;21.90;81.60;;;;;;5011666;28;20160;-54
2022/08/24 00:43:03;;;;;;;7.03;3.08;;;21.80;81.70;;;;;;5012046;28;20022;-51
2022/08/24 00:45:30;;;;;;;5.82;3.05;;;21.80;81.80;;;;;;5012427;28;20378;-54
2022/08/24 00:48:02;;;;;;;6.68;3.20;;;21.80;81.80;;;;;;5011025;28;20028;-52
2022/08/24 00:50:43;;;;;;;6.05;3.30;;;21.80;82.00;;;;;;5011173;28;20033;-56
2022/08/24 00:53:15;;;;;;;3.97;2.70;;;21.70;81.90;;;;;;5012077;28;20025;-54
2022/08/24 00:55:47;;;;;;;3.47;2.92;;;21.60;82.20;;;;;;5012254;28;20037;-52
2022/08/24 00:58:19;;;;;;;8.45;3.00;;;21.50;82.50;;;;;;5012231;28;20025;-56
2022/08/24 01:00:49;;;;;;;4.93;2.80;;;21.50;82.90;;;;;;5012120;28;20486;-56
2022/08/24 01:03:15;;;;;;;3.42;3.08;;;21.40;83.00;;;;;;5011935;28;20022;-57
2022/08/24 01:05:40;;;;;;;4.10;2.92;;;21.30;83.40;;;;;;5012124;28;20116;-53
2022/08/24 01:08:08;;;;;;;4.78;2.63;;;21.20;83.50;;;;;;5011854;28;20556;-52
2022/08/24 01:10:40;;;;;;;7.28;2.88;;;21.20;83.70;;;;;;5010745;28;20026;-55
2022/08/24 01:13:07;;;;;;;6.97;2.90;;;21.20;83.70;;;;;;5010269;28;20030;-55
2022/08/24 01:15:37;;;;;;;4.80;3.20;;;21.20;84.00;;;;;;5011892;28;20474;-58
2022/08/24 01:21:00;;;;;;;3.28;2.92;;;21.20;84.20;;;;;;5011798;28;20080;-57
2022/08/24 01:23:40;;;;;;;4.20;3.33;;;21.20;84.30;;;;;;5011558;28;20033;-53
2022/08/24 01:26:08;;;;;;;7.88;3.22;;;21.20;84.50;;;;;;5011621;28;20030;-54
2022/08/24 01:28:35;;;;;;;9.27;3.00;;;21.20;84.40;;;;;;5011738;28;20018;-56
2022/08/24 01:31:01;;;;;;;13.43;2.53;;;21.20;84.40;;;;;;5011731;28;20390;-56
2022/08/24 01:33:30;;;;;;;8.98;2.85;;;21.20;84.40;;;;;;5011542;28;20105;-55
2022/08/24 01:36:16;;;;;;;3.50;2.47;;;21.20;84.40;;;;;;5011842;28;20034;-57
2022/08/24 01:38:42;;;;;;;8.85;3.08;;;21.20;84.30;;;;;;5011956;28;20545;-54
2022/08/24 01:41:07;;;;;;;6.57;3.10;;;21.20;84.10;;;;;;5011516;28;20117;-55
2022/08/24 01:43:33;;;;;;;8.10;3.55;;;21.20;83.90;;;;;;5011271;28;20064;-56
2022/08/24 01:45:58;;;;;;;4.35;2.58;;;21.20;84.10;;;;;;5011703;28;20033;-52
2022/08/24 01:48:24;;;;;;;4.63;3.05;;;21.10;84.40;;;;;;5011569;28;20061;-55
2022/08/24 01:50:49;;;;;;;5.13;2.65;;;21.10;84.60;;;;;;5011749;28;20029;-54
2022/08/24 01:53:15;;;;;;;5.15;2.92;;;21.00;84.70;;;;;;5015163;28;20026;-53
2022/08/24 01:55:41;;;;;;;6.57;3.58;;;21.00;84.80;;;;;;5015333;28;20123;-55
2022/08/24 01:58:06;;;;;;;5.97;2.97;;;21.00;85.00;;;;;;5015550;28;20413;-50
2022/08/24 02:00:34;;;;;;;7.97;2.90;;;21.00;85.00;;;;;;5015370;28;20030;-50
2022/08/24 02:03:00;;;;;;;3.35;2.60;;;20.90;85.20;;;;;;5015107;28;20048;-51
2022/08/24 02:05:26;;;;;;;2.60;2.40;;;20.90;85.20;;;;;;5015256;28;20018;-51
2022/08/24 02:07:51;;;;;;;7.60;2.85;;;20.90;85.30;;;;;;5014045;28;20481;-50
2022/08/24 02:10:18;;;;;;;2.53;2.13;;;20.80;85.70;;;;;;5014076;28;20026;-56
2022/08/24 02:12:56;;;;;;;8.15;2.50;;;20.80;85.70;;;;;;5013564;28;20461;-53
2022/08/24 02:15:33;;;;;;;3.22;2.22;;;20.80;85.70;;;;;;5015015;28;20097;-55
2022/08/24 02:17:59;;;;;;;5.28;2.60;;;20.70;85.80;;;;;;5015203;28;20040;-54
2022/08/24 02:20:26;;;;;;;7.28;2.85;;;20.80;85.80;;;;;;5015138;28;20101;-54
2022/08/24 02:22:52;;;;;;;17.83;2.55;;;20.70;85.90;;;;;;5014859;28;20516;-51
2022/08/24 02:25:18;;;;;;;10.00;2.40;;;20.70;86.00;;;;;;5015897;28;20038;-53
2022/08/24 02:27:44;;;;;;;3.78;2.45;;;20.70;86.10;;;;;;5015476;28;20060;-48
2022/08/24 02:30:10;;;;;;;4.35;2.45;;;20.60;86.20;;;;;;5014907;28;20057;-52
2022/08/24 02:32:36;;;;;;;4.50;2.20;;;20.60;86.40;;;;;;5014517;28;20076;-51
2022/08/24 02:35:01;;;;;;;4.03;2.30;;;20.60;86.50;;;;;;5015208;28;20034;-51
2022/08/24 02:37:27;;;;;;;3.03;2.15;;;20.60;86.60;;;;;;5014752;28;20026;-51
2022/08/24 02:39:52;;;;;;;2.92;2.40;;;20.60;86.80;;;;;;5014614;28;20045;-52
2022/08/24 02:42:18;;;;;;;3.30;2.45;;;20.50;87.00;;;;;;5014461;28;20041;-50
2022/08/24 02:44:44;;;;;;;2.10;1.88;;;20.50;87.20;;;;;;5014748;28;20068;-52
2022/08/24 02:47:09;;;;;;;9.43;3.00;;;20.50;87.50;;;;;;5014692;28;20022;-53
2022/08/24 02:49:35;;;;;;;5.60;2.70;;;20.40;87.60;;;;;;5014576;28;20396;-53
2022/08/24 02:52:02;;;;;;;4.88;2.00;;;20.40;87.80;;;;;;5014038;28;20502;-54
2022/08/24 02:54:27;;;;;;;2.35;1.90;;;20.40;88.00;;;;;;5013687;28;20041;-52
2022/08/24 02:56:53;;;;;;;5.20;2.03;;;20.40;88.30;;;;;;5014314;28;20402;-51
2022/08/24 02:59:21;;;;;;;7.07;2.35;;;20.40;88.50;;;;;;5014069;28;20026;-52
2022/08/24 03:01:47;;;;;;;5.05;2.35;;;20.40;88.80;;;;;;5014171;28;20097;-55
2022/08/24 03:04:13;;;;;;;6.45;2.53;;;20.40;88.90;;;;;;5013464;28;20021;-53
2022/08/24 03:06:40;;;;;;;3.17;2.53;;;20.40;89.10;;;;;;5014164;28;20022;-51
2022/08/24 03:09:06;;;;;;;7.97;2.30;;;20.30;89.50;;;;;;5014211;28;20084;-50
2022/08/24 03:11:31;;;;;;;4.35;2.53;;;20.30;89.80;;;;;;5014064;28;20026;-54
2022/08/24 03:13:57;;;;;;;3.78;2.03;;;20.20;90.10;;;;;;5012811;28;20540;-51
2022/08/24 03:16:24;;;;;;;3.42;2.38;;;20.20;90.40;;;;;;5014898;28;20030;-52
2022/08/24 03:18:49;;;;;;;3.75;2.40;;;20.10;90.50;;;;;;5014221;28;20033;-50
2022/08/24 03:21:15;;;;;;;8.50;2.70;;;20.10;90.70;;;;;;5013886;28;20032;-51
2022/08/24 03:23:40;;;;;;;6.43;2.70;;;20.10;90.90;;;;;;5013661;28;20433;-46
2022/08/24 03:26:06;;;;;;;5.55;2.20;;;20.10;90.90;;;;;;5014246;28;20033;-48
2022/08/24 03:28:31;;;;;;;2.20;2.00;;;20.10;91.00;;;;;;5014813;28;20026;-47
2022/08/24 03:30:57;;;;;;;4.82;2.10;;;20.00;91.20;;;;;;5013462;28;20025;-48
2022/08/24 03:33:22;;;;;;;7.63;2.70;;;20.00;91.30;;;;;;5012109;28;20033;-47
2022/08/24 03:35:48;;;;;;;5.22;2.20;;;19.90;91.50;;;;;;5013722;28;20030;-47
2022/08/24 03:38:14;;;;;;;2.33;1.98;;;20.00;91.60;;;;;;5013398;28;20029;-52
2022/08/24 03:40:40;;;;;;;2.70;2.50;;;19.90;91.70;;;;;;5013421;28;20025;-52
2022/08/24 03:43:06;;;;;;;6.40;2.42;;;19.90;91.90;;;;;;5013148;28;20018;-46
2022/08/24 03:45:32;;;;;;;7.07;3.20;;;19.90;92.10;;;;;;5013220;28;20470;-49
2022/08/24 03:47:57;;;;;;;2.33;2.00;;;19.90;92.30;;;;;;5012154;28;20076;-46
2022/08/24 03:50:24;;;;;;;4.18;2.30;;;19.80;92.30;;;;;;5013275;28;20054;-49
2022/08/24 03:52:50;;;;;;;11.02;2.30;;;19.90;92.50;;;;;;5013009;28;20065;-47
2022/08/24 03:55:16;;;;;;;4.00;2.95;;;19.80;92.60;;;;;;5012871;28;20273;-47
2022/08/24 03:57:42;;;;;;;15.77;2.53;;;19.80;92.80;;;;;;5011906;28;20156;-47
2022/08/24 04:00:11;;;;;;;13.23;2.72;;;19.70;93.00;;;;;;5013044;28;20113;-46
2022/08/24 04:02:37;;;;;;;5.10;2.65;;;19.60;93.20;;;;;;5012848;28;20398;-52
2022/08/24 04:05:04;;;;;;;5.95;2.83;;;19.50;93.50;;;;;;5013337;28;20026;-48
2022/08/24 04:07:30;;;;;;;3.50;2.70;;;19.50;93.60;;;;;;5013080;28;20028;-46
2022/08/24 04:09:56;;;;;;;8.27;2.80;;;19.40;93.90;;;;;;5012944;28;20101;-48
2022/08/24 04:12:22;;;;;;;3.33;2.13;;;19.50;94.10;;;;;;5012526;28;20042;-54
2022/08/24 04:14:50;;;;;;;4.30;2.45;;;19.40;94.20;;;;;;5012823;28;20068;-47
2022/08/24 04:17:16;;;;;;;3.40;2.50;;;19.40;94.30;;;;;;5012832;28;20037;-50
2022/08/24 04:19:56;;;;;;;3.60;2.50;;;19.40;94.50;;;;;;5012788;28;20029;-51
2022/08/24 04:22:23;;;;;;;3.10;2.33;;;19.40;94.50;;;;;;5011112;28;20073;-49
2022/08/24 04:24:49;;;;;;;5.82;2.40;;;19.30;94.80;;;;;;5012665;28;20064;-49
2022/08/24 04:27:14;;;;;;;4.95;2.15;;;19.30;95.00;;;;;;5011381;28;20493;-50
2022/08/24 04:29:40;;;;;;;4.25;2.50;;;19.30;95.20;;;;;;5012771;28;20156;-47
2022/08/24 04:32:06;;;;;;;8.00;2.83;;;19.20;95.30;;;;;;5012261;28;20030;-49
2022/08/24 04:34:32;;;;;;;2.55;2.35;;;19.20;95.50;;;;;;5012704;28;20136;-48
2022/08/24 04:36:57;;;;;;;7.97;2.53;;;19.20;95.50;;;;;;5012423;28;20156;-49
2022/08/24 04:39:23;;;;;;;4.00;2.53;;;19.20;95.70;;;;;;5012379;28;20042;-51
2022/08/24 04:41:48;;;;;;;4.72;2.22;;;19.20;95.80;;;;;;5012228;28;20033;-48
2022/08/24 04:44:14;;;;;;;3.40;2.20;;;19.20;95.80;;;;;;5011027;28;20022;-48
2022/08/24 04:46:40;;;;;;;4.95;2.05;;;19.20;95.90;;;;;;5012477;28;20547;-48
2022/08/24 04:49:05;;;;;;;4.93;2.72;;;19.20;96.20;;;;;;5011125;28;20022;-49
2022/08/24 04:51:30;;;;;;;5.18;2.35;;;19.10;96.30;;;;;;5012095;28;20512;-49
2022/08/24 04:53:56;;;;;;;3.53;2.17;;;19.10;96.50;;;;;;5011696;28;20080;-49
2022/08/24 04:56:24;;;;;;;2.72;2.42;;;19.00;96.60;;;;;;5012370;28;20026;-47
2022/08/24 04:58:54;;;;;;;3.60;2.30;;;19.20;96.50;;;;;;5012432;28;20379;-45
2022/08/24 05:01:22;;;;;;;6.07;2.55;;;19.20;96.50;;;;;;5012037;28;20029;-45
2022/08/24 05:03:52;;;;;;;4.53;2.47;;;19.30;96.50;;;;;;5012004;28;20030;-47
2022/08/24 05:06:20;;;;;;;2.53;2.25;;;19.40;96.40;;;;;;5011946;28;20097;-48
2022/08/24 05:08:46;;;;;;;4.35;2.42;;;19.60;96.30;;;;;;5012285;28;20030;-48
2022/08/24 05:11:12;;;;;;;4.40;2.60;;;19.80;96.10;;;;;;5011801;28;20081;-46
2022/08/24 05:13:39;;;;;;;3.83;3.42;;;20.10;95.70;;;;;;5011829;28;20100;-46
2022/08/24 05:16:07;;;;;;;3.47;2.22;;;20.50;95.00;;;;;;5011705;28;20151;-50
2022/08/24 05:18:33;;;;;;;2.95;2.20;;;20.80;94.40;;;;;;5011994;28;20486;-45
2022/08/24 05:20:59;;;;;;;2.33;2.10;;;21.20;93.70;;;;;;5011429;28;20116;-52
2022/08/24 05:23:25;;;;;;;4.60;2.00;;;21.60;93.10;;;;;;5011712;28;20105;-47
2022/08/24 05:25:50;;;;;;;3.08;2.10;;;21.90;92.70;;;;;;5011612;28;20034;-49
2022/08/24 05:28:16;;;;;;;6.05;2.30;;;22.20;92.10;;;;;;5011530;28;20034;-49
2022/08/24 05:30:42;;;;;;;7.30;2.40;;;22.60;91.50;;;;;;5011717;28;20038;-51
2022/08/24 05:33:08;;;;;;;2.42;2.08;;;22.80;91.00;;;;;;5011403;28;20025;-50
2022/08/24 05:35:38;;;;;;;5.25;3.08;;;23.00;90.70;;;;;;5011480;28;20037;-51
2022/08/24 05:38:03;;;;;;;7.03;2.25;;;23.20;90.30;;;;;;5010206;28;20030;-46
2022/08/24 05:40:29;;;;;;;4.05;2.17;;;23.40;90.00;;;;;;5011715;28;20321;-49
2022/08/24 05:42:54;;;;;;;3.20;2.20;;;23.40;89.60;;;;;;5011562;28;20037;-52
2022/08/24 05:45:20;;;;;;;2.05;1.85;;;23.20;90.00;;;;;;5011803;28;20033;-52
2022/08/24 05:47:46;;;;;;;2.10;1.90;;;23.20;90.10;;;;;;5010352;28;20022;-49
2022/08/24 05:50:11;;;;;;;4.13;2.03;;;22.90;90.40;;;;;;5011532;28;20363;-48
2022/08/24 05:52:37;;;;;;;5.57;2.10;;;22.90;90.60;;;;;;5011307;28;20105;-49
2022/08/24 05:55:04;;;;;;;5.55;2.55;;;23.00;90.80;;;;;;5010818;28;20022;-47
2022/08/24 05:57:33;;;;;;;5.75;2.10;;;23.00;90.60;;;;;;5011406;28;20030;-46
2022/08/24 05:59:59;;;;;;;4.22;2.00;;;23.20;90.40;;;;;;5010085;28;20464;-47
2022/08/24 06:02:25;;;;;;;3.05;2.08;;;23.40;90.30;;;;;;5011082;28;20077;-51
2022/08/24 06:04:50;;;;;;;2.25;1.95;;;23.50;89.90;;;;;;5011362;28;20522;-47
2022/08/24 06:07:17;;;;;;;4.88;2.13;;;23.40;90.00;;;;;;5011785;28;20091;-45
2022/08/24 06:09:42;;;;;;;3.13;2.47;;;23.40;90.10;;;;;;5011515;28;20523;-45
2022/08/24 06:12:09;;;;;;;7.75;2.60;;;23.50;89.90;;;;;;5010853;28;20030;-46
2022/08/24 06:14:35;;;;;;;5.00;2.20;;;23.60;89.80;;;;;;5011490;28;20029;-46
2022/08/24 06:17:03;;;;;;;5.05;2.20;;;23.50;90.00;;;;;;5011533;28;20041;-46
2022/08/24 06:19:28;;;;;;;4.82;2.33;;;23.50;89.80;;;;;;5011384;28;20056;-47
2022/08/24 06:21:54;;;;;;;6.00;2.15;;;23.40;90.10;;;;;;5009734;28;20116;-48
2022/08/24 06:27:20;;;;;;;2.50;2.00;;;23.50;90.20;;;;;;5009773;28;20396;-49
2022/08/24 06:27:20;;;;;;;5.45;2.15;;;23.60;90.10;;;;;;5011137;28;20030;-49
2022/08/24 06:29:49;;;;;;;6.28;2.15;;;24.00;89.00;;;;;;5011199;28;20030;-48
2022/08/24 06:32:15;;;;;;;3.08;2.00;;;24.40;87.70;;;;;;5010835;28;20026;-47
2022/08/24 06:34:40;;;;;;;3.03;2.05;;;25.10;86.40;;;;;;5011127;28;20121;-52
2022/08/24 06:37:06;;;;;;;2.42;1.80;;;25.60;84.90;;;;;;5011020;28;20080;-49
2022/08/24 06:39:31;;;;;;;8.65;2.20;;;26.30;82.40;;;;;;5013185;28;20175;-49
2022/08/24 06:41:57;;;;;;;2.03;1.70;;;26.50;81.20;;;;;;5014362;28;20033;-49
2022/08/24 06:44:23;;;;;;;11.02;2.15;;;26.80;80.50;;;;;;5012896;28;20417;-53
2022/08/24 06:46:48;;;;;;;6.03;2.17;;;26.70;80.20;;;;;;5013210;28;20073;-53
2022/08/24 06:49:14;;;;;;;8.35;1.98;;;26.40;80.40;;;;;;5019870;28;20096;-48
2022/08/24 06:51:39;;;;;;;9.48;2.15;;;26.40;80.80;;;;;;5025702;28;20454;-50
2022/08/24 06:54:05;;;;;;;5.32;2.30;;;26.50;81.00;;;;;;5008644;28;20032;-50
2022/08/24 06:56:30;;;;;;;6.45;2.17;;;26.80;80.20;;;;;;5014140;28;20025;-47
2022/08/24 06:58:56;;;;;;;4.80;2.00;;;27.40;79.00;;;;;;5014097;28;20022;-47
2022/08/24 07:01:25;;;;;;;9.18;1.98;;;27.90;77.90;;;;;;5014272;28;20026;-49
2022/08/24 07:03:51;;;;;;;3.95;1.80;;;28.40;75.90;;;;;;5014073;28;20022;-49
2022/08/24 07:06:17;;;;;;;6.10;1.80;;;28.70;76.00;;;;;;5012266;28;20025;-51
2022/08/24 07:08:43;;;;;;;5.15;2.00;;;28.90;74.30;;;;;;5010913;28;20104;-53
2022/08/24 07:11:11;;;;;;;3.40;1.70;;;28.70;74.40;;;;;;5013597;28;20232;-48
2022/08/24 07:13:37;;;;;;;3.22;2.05;;;28.80;73.90;;;;;;5013768;28;20125;-53
2022/08/24 07:16:03;;;;;;;1.92;1.60;;;29.10;73.60;;;;;;5013862;28;20053;-49
2022/08/24 07:18:29;;;;;;;4.82;1.70;;;29.50;73.40;;;;;;5014141;28;20508;-49
2022/08/24 07:20:55;;;;;;;4.68;1.85;;;29.60;72.00;;;;;;5013881;28;20073;-46
2022/08/24 07:23:21;;;;;;;6.78;2.28;;;29.30;72.50;;;;;;5012392;28;20029;-46
2022/08/24 07:25:47;;;;;;;8.25;1.90;;;29.00;72.90;;;;;;5013303;28;20453;-50
2022/08/24 07:28:13;;;;;;;3.30;1.60;;;28.90;73.60;;;;;;5013825;28;20109;-51
2022/08/24 07:30:40;;;;;;;6.90;1.73;;;29.00;73.20;;;;;;5013965;28;20161;-45
2022/08/24 07:33:07;;;;;;;3.30;1.85;;;29.10;72.80;;;;;;5013504;28;20022;-47
2022/08/24 07:35:32;;;;;;;5.35;1.77;;;28.80;73.20;;;;;;5013593;28;20120;-51
2022/08/24 07:37:59;;;;;;;7.55;1.58;;;28.90;73.00;;;;;;5013673;28;20100;-48
2022/08/24 07:40:26;;;;;;;11.15;1.85;;;29.00;73.60;;;;;;5013374;28;20030;-50
2022/08/24 07:42:53;;;;;;;3.65;1.40;;;29.00;73.40;;;;;;5013227;28;20057;-45
2022/08/24 07:45:19;;;;;;;6.70;1.80;;;29.50;73.50;;;;;;5013347;28;20030;-46
2022/08/24 07:47:45;;;;;;;2.47;1.58;;;30.00;71.90;;;;;;5013562;28;20026;-48
2022/08/24 07:50:12;;;;;;;3.75;1.50;;;30.50;69.60;;;;;;5012672;28;20375;-48
2022/08/24 07:52:38;;;;;;;6.72;1.55;;;30.70;68.60;;;;;;5011479;28;20030;-50
2022/08/24 07:55:04;;;;;;;2.17;1.65;;;30.90;68.40;;;;;;5013186;28;20508;-46
2022/08/24 07:57:30;;;;;;;9.98;1.83;;;31.20;67.50;;;;;;5013126;28;20033;-48
2022/08/24 07:59:58;;;;;;;8.88;1.73;;;31.40;67.10;;;;;;5013308;28;20112;-50
2022/08/24 08:02:24;;;;;;;3.72;1.80;;;31.60;66.60;;;;;;5012785;28;20504;-48
2022/08/24 08:04:49;;;;;;;8.05;1.50;;;31.40;66.30;;;;;;5013059;28;20029;-49
2022/08/24 08:07:16;;;;;;;3.78;1.40;;;30.90;66.90;;;;;;5013330;28;20100;-49
2022/08/24 08:09:42;;;;;;;2.92;1.13;;;30.70;67.60;;;;;;5013171;28;20497;-49
2022/08/24 08:12:08;;;;;;;4.00;1.27;;;30.90;67.20;;;;;;5012667;28;20057;-49
2022/08/24 08:14:34;;;;;;;2.80;1.52;;;31.10;66.90;;;;;;5013192;28;20113;-52
2022/08/24 08:17:00;;;;;;;7.43;1.67;;;31.20;67.50;;;;;;5013052;28;20026;-50
2022/08/24 08:19:27;;;;;;;6.50;1.80;;;31.20;66.60;;;;;;5012936;28;20022;-47
2022/08/24 08:24:38;;;;;;;2.97;1.67;;;31.10;66.50;;;;;;5013069;28;20392;-45
2022/08/24 08:27:05;;;;;;;3.90;1.40;;;31.50;65.40;;;;;;5012923;28;20388;-50
2022/08/24 08:29:32;;;;;;;8.27;1.75;;;31.30;65.90;;;;;;5012435;28;20429;-48
2022/08/24 08:31:57;;;;;;;4.38;2.30;;;31.20;66.40;;;;;;5012315;28;20113;-46
2022/08/24 08:34:23;;;;;;;3.95;1.70;;;31.20;66.40;;;;;;5012151;28;20528;-52
2022/08/24 08:36:49;;;;;;;3.13;1.30;;;31.70;65.70;;;;;;5012852;28;20022;-51
2022/08/24 08:39:17;;;;;;;8.93;1.90;;;32.70;63.70;;;;;;5010329;28;20025;-49
2022/08/24 08:41:49;;;;;;;3.00;1.50;;;33.30;62.80;;;;;;5008808;28;20045;-46
2022/08/24 08:44:14;;;;;;;3.83;1.48;;;33.50;62.00;;;;;;5010799;28;20072;-49
2022/08/24 08:47:00;;;;;;;3.53;1.65;;;33.50;62.20;;;;;;5011262;28;20452;-47
2022/08/24 08:50:03;;;;;;;1.60;1.30;;;33.50;61.90;;;;;;5011859;28;20477;-47
2022/08/24 08:53:00;;;;;;;2.83;1.48;;;33.70;61.50;;;;;;5006799;28;20030;-49
2022/08/24 08:56:05;;;;;;;1.52;1.10;;;33.80;61.00;;;;;;5006011;28;20046;-48
2022/08/24 08:58:52;;;;;;;1.73;1.20;;;34.00;60.40;;;;;;5006936;28;20132;-49
2022/08/24 09:01:42;;;;;;;2.55;1.10;;;34.10;60.10;;;;;;5011235;28;20300;-48
2022/08/24 09:04:57;;;;;;;1.55;1.30;;;34.20;59.80;;;;;;5010636;28;20061;-48
2022/08/24 09:07:59;;;;;;;2.08;1.67;;;34.40;60.10;;;;;;5012138;28;20068;-48
2022/08/24 09:10:53;;;;;;;3.25;1.40;;;34.40;59.80;;;;;;5003236;28;20414;-48
2022/08/24 09:13:54;;;;;;;4.65;1.40;;;33.80;59.70;;;;;;5011463;28;20642;-48
2022/08/24 09:16:40;;;;;;;2.50;1.30;;;32.80;61.00;;;;;;5013512;28;20393;-46
2022/08/24 09:19:32;;;;;;;6.85;1.77;;;32.50;61.90;;;;;;5028938;28;20029;-46
2022/08/24 09:22:07;;;;;;;4.18;1.50;;;32.20;62.40;;;;;;5021329;28;20512;-48
2022/08/24 09:24:50;;;;;;;21.75;16.55;;;32.30;61.80;;;;;;5012201;28;20046;-47
2022/08/24 09:27:31;;;;;;;16.30;13.50;;;32.20;61.30;;;;;;5012731;28;20022;-53
2022/08/24 09:30:08;;;;;;;3.47;1.70;;;32.20;61.60;;;;;;5012250;28;20049;-47
2022/08/24 09:33:01;;;;;;;4.82;1.70;;;32.40;61.40;;;;;;5006569;28;20092;-49
2022/08/24 09:35:55;;;;;;;3.65;1.30;;;32.80;60.50;;;;;;4998136;28;20514;-46
2022/08/24 09:38:43;;;;;;;2.70;1.67;;;33.20;59.40;;;;;;5012087;28;20378;-50
2022/08/24 09:41:27;;;;;;;5.20;1.48;;;33.40;59.70;;;;;;5010027;28;20079;-50
2022/08/24 09:44:29;;;;;;;3.67;1.27;;;33.30;59.80;;;;;;4992007;28;20461;-50
2022/08/24 09:47:16;;;;;;;2.45;1.30;;;33.40;60.00;;;;;;5002031;28;20037;-46
2022/08/24 09:50:19;;;;;;;4.45;1.67;;;33.50;59.40;;;;;;5010330;28;20026;-48
2022/08/24 09:52:57;;;;;;;1.70;1.40;;;33.40;59.60;;;;;;5010774;28;20029;-47
2022/08/24 09:56:14;;;;;;;2.85;1.65;;;33.20;59.70;;;;;;5011176;28;20121;-49
2022/08/24 09:58:45;;;;;;;3.80;1.33;;;32.60;60.90;;;;;;5009407;28;20026;-46
2022/08/24 10:01:40;;;;;;;2.63;1.90;;;32.10;61.60;;;;;;5011752;28;20038;-46
2022/08/24 10:04:41;;;;;;;6.97;2.33;;;32.00;62.00;;;;;;5010913;28;20080;-46
2022/08/24 10:07:20;;;;;;;4.32;1.70;;;31.80;62.00;;;;;;5011552;28;20033;-49
2022/08/24 10:10:31;;;;;;;5.10;1.40;;;31.90;62.50;;;;;;5011413;28;20022;-47
2022/08/24 10:13:16;;;;;;;2.60;1.90;;;31.90;62.40;;;;;;5012471;28;20030;-47
2022/08/24 10:15:59;;;;;;;8.15;1.45;;;32.20;62.60;;;;;;5014708;28;20461;-55
2022/08/24 10:18:58;;;;;;;2.65;1.58;;;32.00;62.40;;;;;;5015199;28;20076;-49
2022/08/24 10:21:50;;;;;;;11.80;1.60;;;31.80;62.90;;;;;;5015187;28;20022;-49
2022/08/24 10:24:28;;;;;;;4.82;1.98;;;31.50;63.10;;;;;;5013522;28;20356;-46
2022/08/24 10:27:17;;;;;;;1.40;1.30;;;31.40;63.60;;;;;;5014877;28;20385;-48
2022/08/24 10:30:02;;;;;;;1.40;1.30;;;31.40;64.20;;;;;;4995214;28;20558;-48
2022/08/24 10:32:52;;;;;;;2.70;1.50;;;31.50;63.70;;;;;;4994882;28;20441;-46
2022/08/24 10:35:17;;;;;;;4.07;1.50;;;31.50;62.40;;;;;;4994106;28;20317;-50
2022/08/24 10:39:39;;;;;;;3.00;1.50;;;31.50;61.60;;;;;;5011983;28;20057;-50
2022/08/24 10:40:53;;;;;;;7.27;1.57;;;31.30;61.90;;;;;;5014618;28;20091;-50
2022/08/24 10:43:34;;;;;;;6.57;4.20;;;31.20;62.20;;;;;;5014511;28;20023;-51
2022/08/24 10:46:09;;;;;;;5.32;4.30;;;31.00;62.30;;;;;;5013299;28;20401;-53
2022/08/24 10:48:45;;;;;;;2.30;1.50;;;30.90;62.40;;;;;;5014071;28;20465;-50
2022/08/24 10:51:16;;;;;;;4.07;1.50;;;30.80;62.80;;;;;;5014568;28;20386;-46
2022/08/24 10:53:49;;;;;;;1.27;1.17;;;30.80;61.60;;;;;;5013991;28;20103;-43
2022/08/24 10:56:18;;;;;;;4.65;1.50;;;30.70;61.20;;;;;;5014880;28;20026;-53
2022/08/24 10:59:14;;;;;;;1.83;1.27;;;30.70;61.80;;;;;;5014367;28;20049;-50
2022/08/24 11:02:03;;;;;;;5.68;1.30;;;30.60;62.40;;;;;;5013756;28;20098;-50
2022/08/24 11:04:31;;;;;;;1.55;1.27;;;30.70;62.20;;;;;;5014305;28;20121;-46
2022/08/24 11:07:08;;;;;;;0.90;0.90;;;30.70;61.70;;;;;;5014200;28;20021;-45
2022/08/24 11:09:52;;;;;;;2.92;1.48;;;30.60;60.70;;;;;;5014249;28;20030;-49
2022/08/24 11:12:42;;;;;;;5.10;1.45;;;30.60;61.00;;;;;;5013258;28;20555;-49
2022/08/24 11:15:16;;;;;;;4.60;1.20;;;30.70;61.50;;;;;;5013969;28;20045;-47
2022/08/24 11:17:59;;;;;;;7.25;1.40;;;30.70;60.60;;;;;;5014149;28;20033;-52
2022/08/24 11:20:40;;;;;;;3.72;1.73;;;30.80;60.50;;;;;;5014147;28;20121;-50
2022/08/24 11:23:08;;;;;;;6.95;1.60;;;30.70;61.30;;;;;;5013640;28;20401;-50
2022/08/24 11:25:50;;;;;;;4.32;1.40;;;30.80;61.50;;;;;;5011727;28;20026;-50
2022/08/24 11:28:33;;;;;;;1.42;1.33;;;31.10;61.30;;;;;;5013286;28;20048;-48
2022/08/24 11:30:59;;;;;;;5.45;1.65;;;30.70;61.40;;;;;;5013719;28;20038;-49
2022/08/24 11:33:42;;;;;;;4.47;1.55;;;30.70;60.90;;;;;;5013287;28;20139;-52
2022/08/24 11:36:16;;;;;;;2.40;1.48;;;30.70;61.20;;;;;;5012517;28;20040;-51
2022/08/24 11:38:41;;;;;;;2.15;1.35;;;30.70;61.30;;;;;;5011751;28;20030;-46
2022/08/24 11:41:24;;;;;;;1.27;1.13;;;30.70;61.70;;;;;;5013562;28;20512;-45
2022/08/24 11:43:56;;;;;;;1.27;1.20;;;30.60;61.90;;;;;;4992326;28;20097;-49
2022/08/24 11:46:35;;;;;;;5.40;1.58;;;30.50;61.60;;;;;;4994801;28;20046;-52
2022/08/24 11:49:30;;;;;;;4.65;1.60;;;30.50;61.90;;;;;;5012350;28;20030;-54
2022/08/24 11:52:06;;;;;;;4.20;1.35;;;30.50;62.00;;;;;;5013102;28;20037;-50
2022/08/24 11:55:04;;;;;;;4.13;1.20;;;30.40;62.30;;;;;;4993741;28;20023;-49
2022/08/24 11:57:43;;;;;;;1.92;1.67;;;30.40;62.80;;;;;;4967138;28;20128;-51
2022/08/24 12:00:12;;;;;;;1.35;1.25;;;30.50;62.20;;;;;;4993762;28;20379;-53
2022/08/24 12:02:50;;;;;;;4.75;1.67;;;30.60;61.90;;;;;;5011815;28;20441;-53
2022/08/24 12:05:35;;;;;;;4.35;1.50;;;30.70;62.10;;;;;;5013262;28;20022;-49
2022/08/24 12:08:16;;;;;;;1.80;1.20;;;30.70;60.40;;;;;;5011951;28;20029;-47
2022/08/24 12:10:58;;;;;;;2.95;1.90;;;30.70;61.10;;;;;;5012947;28;20429;-50
2022/08/24 12:13:28;;;;;;;2.95;1.55;;;30.80;60.70;;;;;;5011679;28;20406;-51
2022/08/24 12:16:18;;;;;;;3.85;1.65;;;30.70;60.80;;;;;;5012679;28;20038;-49
2022/08/24 12:18:44;;;;;;;4.00;1.80;;;30.70;61.00;;;;;;5013283;28;20033;-50
2022/08/24 12:21:13;;;;;;;3.97;1.75;;;30.80;60.10;;;;;;5012717;28;20033;-47
2022/08/24 12:23:43;;;;;;;2.92;1.50;;;30.80;60.60;;;;;;5011553;28;20018;-50
2022/08/24 12:26:24;;;;;;;4.30;1.67;;;30.80;60.60;;;;;;5012830;28;20044;-45
2022/08/24 12:28:54;;;;;;;3.03;1.42;;;30.90;60.10;;;;;;5012815;28;20105;-50
2022/08/24 12:31:38;;;;;;;10.10;1.88;;;31.00;59.30;;;;;;5010483;28;20037;-48
2022/08/24 12:34:10;;;;;;;3.08;1.63;;;30.90;60.10;;;;;;5017545;28;20409;-52
2022/08/24 12:36:45;;;;;;;5.47;1.90;;;30.80;59.70;;;;;;5030576;28;20025;-44
2022/08/24 12:39:20;;;;;;;6.20;1.45;;;30.80;60.20;;;;;;5011607;28;20030;-47
2022/08/24 12:42:15;;;;;;;5.95;3.40;;;30.90;60.20;;;;;;5011795;28;20499;-47
2022/08/24 12:44:44;;;;;;;;;;;30.90;59.40;;;;;;5006730;28;20501;-47
2022/08/24 12:47:10;;;;;;;2.63;1.73;;;30.90;60.30;;;;;;5028047;28;19905;-44
2022/08/24 12:49:48;;;;;;;2.78;1.63;;;31.00;60.60;;;;;;5012065;28;20030;-49
2022/08/24 12:52:31;;;;;;;4.18;1.80;;;31.10;60.60;;;;;;5011475;28;20022;-49
2022/08/24 12:55:11;;;;;;;3.33;1.70;;;31.00;60.70;;;;;;5009669;28;20034;-50
2022/08/24 12:58:06;;;;;;;4.28;1.67;;;30.90;60.20;;;;;;5028781;28;20021;-52
2022/08/24 13:00:42;;;;;;;3.22;1.80;;;30.90;60.40;;;;;;5007952;28;20045;-48
2022/08/24 13:03:30;;;;;;;5.88;1.67;;;31.10;60.70;;;;;;5011836;28;20026;-51
2022/08/24 13:05:59;;;;;;;1.77;1.67;;;31.30;60.10;;;;;;5011660;28;20512;-47
2022/08/24 13:08:41;;;;;;;4.80;1.60;;;31.20;59.80;;;;;;5011392;28;20018;-51
2022/08/24 13:11:31;;;;;;;2.33;2.03;;;31.10;59.90;;;;;;5010566;28;20077;-50
2022/08/24 13:13:56;;;;;;;3.33;2.45;;;31.10;60.20;;;;;;5029322;28;20025;-52
2022/08/24 13:16:44;;;;;;;1.85;1.75;;;31.10;60.60;;;;;;5031033;28;20033;-50